createdAt,value
2019-02-02T00:02:04.353Z,1.10
2019-02-02T00:04:34.216Z,1.10
2019-02-02T00:07:04.217Z,1.10
2019-02-02T00:09:34.034Z,1.10
2019-02-02T00:12:03.948Z,1.00
2019-02-02T00:14:33.937Z,1.00
2019-02-02T00:17:03.979Z,1.00
2019-02-02T00:19:33.799Z,1.10
2019-02-02T00:22:03.606Z,1.00
2019-02-02T00:24:33.500Z,1.00
2019-02-02T00:27:03.316Z,1.00
2019-02-02T00:29:33.177Z,1.10
2019-02-02T00:32:02.957Z,1.10
2019-02-02T00:34:32.747Z,1.10
2019-02-02T00:37:02.504Z,1.10
2019-02-02T00:39:32.338Z,1.00
2019-02-02T00:42:02.111Z,1.00
2019-02-02T00:44:32.042Z,1.10
2019-02-02T00:47:01.773Z,1.10
2019-02-02T00:49:31.865Z,1.10
2019-02-02T00:52:01.618Z,1.10
2019-02-02T00:54:31.560Z,1.10
2019-02-02T00:57:04.205Z,1.10
2019-02-02T00:59:34.035Z,1.10
2019-02-02T01:02:03.903Z,1.10
2019-02-02T01:04:33.739Z,1.00
2019-02-02T01:07:04.449Z,1.00
2019-02-02T01:09:34.262Z,1.00
2019-02-02T01:12:04.162Z,0.90
2019-02-02T01:14:34.234Z,0.90
2019-02-02T01:17:04.198Z,0.90
2019-02-02T01:19:34.104Z,0.80
2019-02-02T01:22:03.900Z,0.80
2019-02-02T01:24:33.828Z,0.80
2019-02-02T01:27:03.791Z,0.80
2019-02-02T01:29:33.633Z,0.70
2019-02-02T01:32:03.424Z,0.80
2019-02-02T01:34:33.208Z,0.80
2019-02-02T01:37:02.937Z,0.80
2019-02-02T01:39:32.804Z,0.90
2019-02-02T01:42:02.688Z,0.90
2019-02-02T01:44:32.532Z,0.90
2019-02-02T01:47:02.288Z,0.80
2019-02-02T01:49:32.130Z,0.80
2019-02-02T01:52:01.955Z,0.80
2019-02-02T01:54:31.770Z,0.90
2019-02-02T01:57:01.680Z,0.90
2019-02-02T01:59:31.580Z,0.90
2019-02-02T02:02:01.636Z,1.00
2019-02-02T02:04:31.580Z,0.90
2019-02-02T02:07:01.884Z,1.00
2019-02-02T02:09:31.829Z,1.10
2019-02-02T02:12:01.689Z,1.10
2019-02-02T02:14:31.508Z,1.10
2019-02-02T02:17:01.282Z,1.00
2019-02-02T02:19:31.236Z,1.00
2019-02-02T02:22:01.069Z,1.00
2019-02-02T02:24:30.827Z,1.00
2019-02-02T02:27:00.583Z,1.00
2019-02-02T02:29:30.390Z,1.00
2019-02-02T02:32:00.120Z,1.00
2019-02-02T02:34:29.954Z,1.00
2019-02-02T02:36:59.727Z,1.00
2019-02-02T02:39:29.529Z,1.00
2019-02-02T02:41:59.378Z,1.00
2019-02-02T02:44:29.121Z,1.00
2019-02-02T02:46:58.944Z,1.00
2019-02-02T02:49:28.701Z,1.00
2019-02-02T02:51:58.496Z,1.00
2019-02-02T02:54:28.357Z,1.00
2019-02-02T02:56:58.234Z,1.00
2019-02-02T02:59:28.024Z,1.10
2019-02-02T03:01:57.817Z,1.10
2019-02-02T03:04:27.583Z,1.10
2019-02-02T03:06:57.339Z,1.00
2019-02-02T03:09:27.122Z,1.00
2019-02-02T03:11:56.922Z,1.10
2019-02-02T03:14:26.697Z,1.10
2019-02-02T03:16:56.504Z,1.10
2019-02-02T03:19:26.316Z,1.10
2019-02-02T03:21:56.060Z,1.10
2019-02-02T03:24:25.946Z,1.10
2019-02-02T03:26:55.728Z,1.10
2019-02-02T03:29:25.610Z,1.10
2019-02-02T03:31:55.366Z,1.10
2019-02-02T03:34:25.465Z,1.10
2019-02-02T03:36:55.254Z,1.10
2019-02-02T03:39:25.043Z,1.10
2019-02-02T03:41:54.903Z,1.20
2019-02-02T03:44:24.721Z,1.20
2019-02-02T03:46:54.580Z,1.20
2019-02-02T03:49:24.364Z,1.10
2019-02-02T03:51:54.174Z,1.10
2019-02-02T03:54:24.080Z,1.10
2019-02-02T03:56:53.877Z,1.10
2019-02-02T03:59:23.666Z,1.00
2019-02-02T04:01:53.416Z,1.00
2019-02-02T04:04:23.318Z,1.00
2019-02-02T04:06:53.112Z,0.90
2019-02-02T04:09:22.910Z,0.90
2019-02-02T04:11:52.857Z,0.90
2019-02-02T04:14:22.676Z,0.90
2019-02-02T04:16:52.649Z,0.90
2019-02-02T04:19:22.552Z,0.90
2019-02-02T04:21:52.489Z,0.90
2019-02-02T04:24:22.241Z,0.90
2019-02-02T04:26:52.705Z,0.80
2019-02-02T04:29:22.547Z,0.80
2019-02-02T04:31:52.856Z,0.80
2019-02-02T04:34:23.659Z,0.80
2019-02-02T04:36:53.808Z,0.80
2019-02-02T04:39:23.729Z,0.80
2019-02-02T04:41:53.466Z,0.80
2019-02-02T04:44:23.268Z,0.70
2019-02-02T04:46:53.024Z,0.70
2019-02-02T04:49:22.816Z,0.80
2019-02-02T04:51:52.645Z,0.80
2019-02-02T04:54:22.657Z,0.80
2019-02-02T04:56:52.395Z,0.80
2019-02-02T04:59:29.139Z,0.70
2019-02-02T05:01:53.759Z,0.80
2019-02-02T05:04:23.485Z,0.70
2019-02-02T05:06:53.283Z,0.80
2019-02-02T05:09:23.106Z,0.80
2019-02-02T05:11:52.933Z,0.80
2019-02-02T05:14:22.759Z,0.70
2019-02-02T05:16:52.548Z,0.80
2019-02-02T05:19:22.368Z,0.80
2019-02-02T05:21:52.174Z,0.90
2019-02-02T05:24:21.843Z,0.80
2019-02-02T05:26:51.928Z,0.80
2019-02-02T05:29:21.697Z,0.80
2019-02-02T05:31:51.495Z,0.90
2019-02-02T05:34:21.312Z,0.90
2019-02-02T05:36:53.432Z,0.90
2019-02-02T05:39:23.229Z,0.90
2019-02-02T05:41:53.040Z,0.90
2019-02-02T05:44:22.795Z,0.90
2019-02-02T05:46:52.653Z,0.90
2019-02-02T05:49:22.432Z,0.90
2019-02-02T05:51:53.247Z,0.90
2019-02-02T05:54:23.086Z,0.90
2019-02-02T05:56:55.900Z,0.90
2019-02-02T05:59:25.866Z,0.90
2019-02-02T06:01:55.774Z,0.90
2019-02-02T06:04:25.747Z,1.00
2019-02-02T06:06:55.553Z,1.00
2019-02-02T06:09:25.310Z,1.10
2019-02-02T06:11:55.427Z,1.10
2019-02-02T06:14:25.569Z,1.10
2019-02-02T06:16:56.479Z,1.10
2019-02-02T06:19:26.876Z,1.10
2019-02-02T06:21:57.630Z,1.10
2019-02-02T06:24:30.790Z,1.20
2019-02-02T06:27:04.313Z,1.20
2019-02-02T06:29:34.496Z,1.30
2019-02-02T06:32:11.913Z,1.30
2019-02-02T06:34:36.798Z,1.40
2019-02-02T06:37:08.088Z,1.40
2019-02-02T06:39:42.167Z,1.50
2019-02-02T06:42:12.035Z,1.60
2019-02-02T06:44:41.745Z,1.60
2019-02-02T06:47:11.553Z,1.60
2019-02-02T06:49:41.449Z,1.60
2019-02-02T06:52:11.296Z,1.60
2019-02-02T06:54:41.036Z,1.70
2019-02-02T06:57:10.860Z,1.70
2019-02-02T06:59:41.062Z,1.70
2019-02-02T07:02:10.865Z,1.70
2019-02-02T07:04:40.593Z,1.70
2019-02-02T07:07:10.333Z,1.70
2019-02-02T07:09:40.326Z,1.80
2019-02-02T07:12:10.218Z,1.80
2019-02-02T07:14:40.131Z,1.80
2019-02-02T07:17:09.893Z,1.90
2019-02-02T07:19:39.716Z,1.90
2019-02-02T07:22:09.485Z,2.00
2019-02-02T07:24:39.309Z,2.00
2019-02-02T07:27:09.032Z,2.00
2019-02-02T07:29:38.840Z,2.00
2019-02-02T07:32:08.717Z,2.00
2019-02-02T07:34:38.505Z,2.00
2019-02-02T07:37:08.277Z,2.10
2019-02-02T07:39:38.079Z,2.10
2019-02-02T07:42:07.857Z,2.10
2019-02-02T07:44:37.585Z,2.10
2019-02-02T07:47:09.272Z,2.10
2019-02-02T07:49:38.857Z,2.10
2019-02-02T07:52:08.647Z,2.10
2019-02-02T07:54:38.579Z,2.20
2019-02-02T07:57:08.389Z,2.20
2019-02-02T07:59:38.120Z,2.20
2019-02-02T08:02:08.259Z,2.20
2019-02-02T08:04:39.612Z,2.30
2019-02-02T08:07:09.470Z,2.30
2019-02-02T08:09:39.197Z,2.30
2019-02-02T08:12:08.994Z,2.30
2019-02-02T08:14:38.757Z,2.30
2019-02-02T08:17:08.533Z,2.30
2019-02-02T08:19:38.302Z,2.30
2019-02-02T08:22:08.062Z,2.30
2019-02-02T08:24:38.706Z,2.30
2019-02-02T08:27:08.662Z,2.40
2019-02-02T08:29:39.357Z,2.40
2019-02-02T08:32:09.244Z,2.40
2019-02-02T08:34:38.970Z,2.40
2019-02-02T08:37:08.786Z,2.50
2019-02-02T08:39:38.536Z,2.70
2019-02-02T08:42:08.342Z,2.70
2019-02-02T08:44:38.111Z,2.70
2019-02-02T08:47:08.523Z,2.70
2019-02-02T08:49:40.408Z,2.70
2019-02-02T08:52:13.821Z,2.70
2019-02-02T08:54:44.077Z,2.70
2019-02-02T08:57:14.327Z,2.70
2019-02-02T08:59:44.092Z,2.70
2019-02-02T09:02:14.043Z,2.70
2019-02-02T09:04:43.810Z,2.70
2019-02-02T09:07:13.714Z,2.70
2019-02-02T09:09:43.495Z,2.80
2019-02-02T09:12:13.367Z,2.80
2019-02-02T09:14:43.142Z,2.80
2019-02-02T09:17:13.077Z,2.90
2019-02-02T09:19:43.015Z,2.90
2019-02-02T09:22:12.764Z,2.90
2019-02-02T09:24:42.881Z,2.90
2019-02-02T09:27:12.692Z,2.90
2019-02-02T09:29:42.816Z,3.00
2019-02-02T09:32:12.552Z,3.10
2019-02-02T09:34:42.384Z,3.10
2019-02-02T09:37:12.230Z,3.10
2019-02-02T09:39:42.330Z,3.20
2019-02-02T09:42:12.261Z,3.20
2019-02-02T09:44:41.982Z,3.30
2019-02-02T09:47:11.777Z,3.30
2019-02-02T09:49:41.513Z,3.30
2019-02-02T09:52:11.426Z,3.40
2019-02-02T09:54:41.199Z,3.40
2019-02-02T09:57:11.006Z,3.50
2019-02-02T09:59:40.801Z,3.50
2019-02-02T10:02:10.572Z,3.40
2019-02-02T10:04:40.314Z,3.40
2019-02-02T10:07:10.060Z,3.40
2019-02-02T10:09:39.848Z,3.40
2019-02-02T10:12:09.759Z,3.40
2019-02-02T10:14:39.546Z,3.50
2019-02-02T10:17:09.277Z,3.50
2019-02-02T10:19:39.317Z,3.60
2019-02-02T10:22:09.093Z,3.60
2019-02-02T10:24:38.841Z,3.70
2019-02-02T10:27:08.578Z,3.80
2019-02-02T10:29:38.510Z,3.90
2019-02-02T10:32:08.321Z,4.00
2019-02-02T10:34:38.961Z,4.00
2019-02-02T10:37:08.883Z,4.00
2019-02-02T10:39:38.657Z,3.90
2019-02-02T10:42:08.445Z,3.90
2019-02-02T10:44:39.320Z,3.90
2019-02-02T10:47:09.275Z,3.90
2019-02-02T10:49:39.126Z,4.00
2019-02-02T10:52:09.533Z,4.00
2019-02-02T10:54:39.312Z,4.00
2019-02-02T10:57:09.045Z,4.00
2019-02-02T10:59:39.241Z,4.10
2019-02-02T11:02:09.103Z,4.20
2019-02-02T11:04:39.048Z,4.30
2019-02-02T11:07:08.995Z,4.30
2019-02-02T11:09:38.725Z,4.30
2019-02-02T11:12:08.936Z,4.30
2019-02-02T11:14:39.519Z,4.30
2019-02-02T11:17:09.414Z,4.30
2019-02-02T11:19:39.399Z,4.40
2019-02-02T11:22:10.110Z,4.50
2019-02-02T11:24:39.947Z,4.50
2019-02-02T11:27:15.984Z,4.50
2019-02-02T11:29:45.797Z,4.50
2019-02-02T11:32:16.080Z,4.50
2019-02-02T11:34:46.761Z,4.50
2019-02-02T11:37:17.117Z,4.50
2019-02-02T11:39:47.078Z,4.50
2019-02-02T11:42:21.037Z,4.60
2019-02-02T11:44:51.150Z,4.60
2019-02-02T11:47:21.911Z,4.60
2019-02-02T11:49:51.702Z,4.60
2019-02-02T11:52:23.998Z,4.50
2019-02-02T11:54:54.022Z,4.50
2019-02-02T11:57:23.813Z,4.50
2019-02-02T11:59:53.612Z,4.60
2019-02-02T12:02:23.605Z,4.80
2019-02-02T12:04:53.865Z,4.80
2019-02-02T12:07:23.656Z,4.90
2019-02-02T12:09:53.456Z,4.90
2019-02-02T12:12:23.252Z,4.90
2019-02-02T12:14:53.040Z,5.00
2019-02-02T12:17:22.781Z,5.00
2019-02-02T12:19:52.631Z,5.10
2019-02-02T12:22:22.421Z,5.20
2019-02-02T12:24:52.223Z,5.30
2019-02-02T12:27:21.999Z,5.30
2019-02-02T12:29:51.846Z,5.30
2019-02-02T12:32:26.784Z,5.30
2019-02-02T12:34:53.055Z,5.40
2019-02-02T12:37:22.843Z,5.40
2019-02-02T12:39:52.649Z,5.40
2019-02-02T12:42:22.577Z,5.40
2019-02-02T12:44:52.261Z,5.50
2019-02-02T12:47:27.593Z,5.40
2019-02-02T12:49:57.551Z,5.50
2019-02-02T12:52:27.630Z,5.50
2019-02-02T12:54:57.500Z,5.50
2019-02-02T12:57:27.534Z,5.60
2019-02-02T12:59:57.460Z,5.60
2019-02-02T13:02:37.840Z,5.60
2019-02-02T13:04:58.699Z,5.60
2019-02-02T13:07:28.512Z,5.50
2019-02-02T13:09:58.481Z,5.60
2019-02-02T13:12:28.319Z,5.60
2019-02-02T13:14:58.157Z,5.60
2019-02-02T13:17:27.934Z,5.60
2019-02-02T13:19:57.813Z,5.50
2019-02-02T13:22:28.005Z,5.60
2019-02-02T13:24:57.810Z,5.50
2019-02-02T13:27:27.826Z,5.50
2019-02-02T13:29:57.684Z,5.60
2019-02-02T13:32:27.596Z,5.50
2019-02-02T13:34:57.402Z,5.50
2019-02-02T13:37:27.317Z,5.50
2019-02-02T13:39:57.159Z,5.50
2019-02-02T13:42:26.971Z,5.50
2019-02-02T13:44:56.798Z,5.60
2019-02-02T13:47:26.694Z,5.70
2019-02-02T13:49:56.413Z,5.60
2019-02-02T13:52:26.232Z,5.50
2019-02-02T13:54:55.993Z,5.60
2019-02-02T13:57:26.408Z,5.50
2019-02-02T13:59:56.766Z,5.60
2019-02-02T14:02:27.029Z,5.60
2019-02-02T14:04:57.403Z,5.50
2019-02-02T14:07:27.741Z,5.50
2019-02-02T14:09:57.838Z,5.50
2019-02-02T14:12:28.288Z,5.50
2019-02-02T14:14:58.234Z,5.50
2019-02-02T14:17:29.013Z,5.50
2019-02-02T14:19:59.477Z,5.40
2019-02-02T14:22:29.430Z,5.50
2019-02-02T14:24:59.494Z,5.50
2019-02-02T14:27:29.690Z,5.50
2019-02-02T14:30:02.655Z,5.50
2019-02-02T14:32:32.988Z,5.50
2019-02-02T14:35:03.079Z,5.50
2019-02-02T14:37:33.300Z,5.40
2019-02-02T14:40:03.305Z,5.40
2019-02-02T14:42:33.602Z,5.40
2019-02-02T14:45:04.078Z,5.30
2019-02-02T14:47:34.297Z,5.30
2019-02-02T14:50:06.393Z,5.30
2019-02-02T14:52:36.634Z,5.30
2019-02-02T14:55:08.275Z,5.30
2019-02-02T14:57:38.433Z,5.20
2019-02-02T15:00:12.877Z,5.10
2019-02-02T15:02:42.897Z,5.10
2019-02-02T15:05:13.158Z,5.10
2019-02-02T15:07:43.321Z,5.10
2019-02-02T15:10:14.709Z,5.00
2019-02-02T15:12:45.022Z,5.00
2019-02-02T15:15:15.676Z,5.00
2019-02-02T15:17:46.100Z,4.90
2019-02-02T15:20:21.960Z,4.90
2019-02-02T15:22:50.732Z,4.90
2019-02-02T15:25:21.052Z,4.80
2019-02-02T15:27:51.277Z,4.80
2019-02-02T15:30:22.508Z,4.80
2019-02-02T15:32:53.020Z,4.80
2019-02-02T15:35:23.594Z,4.70
2019-02-02T15:37:54.050Z,4.70
2019-02-02T15:40:24.344Z,4.70
2019-02-02T15:42:54.406Z,4.70
2019-02-02T15:45:25.896Z,4.70
2019-02-02T15:47:56.633Z,4.60
2019-02-02T15:50:26.637Z,4.60
2019-02-02T15:53:00.926Z,4.60
2019-02-02T15:55:31.168Z,4.60
2019-02-02T15:58:01.341Z,4.60
2019-02-02T16:00:35.748Z,4.60
2019-02-02T16:03:08.218Z,4.60
2019-02-02T16:05:39.211Z,4.60
2019-02-02T16:08:14.151Z,4.60
2019-02-02T16:10:44.441Z,4.60
2019-02-02T16:13:14.635Z,4.60
2019-02-02T16:15:47.501Z,4.60
2019-02-02T16:18:17.526Z,4.50
2019-02-02T16:20:47.737Z,4.60
2019-02-02T16:23:17.698Z,4.50
2019-02-02T16:25:47.762Z,4.50
2019-02-02T16:28:18.082Z,4.50
2019-02-02T16:30:48.095Z,4.50
2019-02-02T16:33:18.590Z,4.50
2019-02-02T16:35:48.415Z,4.40
2019-02-02T16:38:19.160Z,4.40
2019-02-02T16:40:49.475Z,4.40
2019-02-02T16:43:19.245Z,4.40
2019-02-02T16:45:49.028Z,4.50
2019-02-02T16:48:19.780Z,4.40
2019-02-02T16:50:51.815Z,4.50
2019-02-02T16:53:22.365Z,4.40
2019-02-02T16:55:52.737Z,4.40
2019-02-02T16:58:22.502Z,4.40
2019-02-02T17:00:52.369Z,4.40
2019-02-02T17:03:22.538Z,4.40
2019-02-02T17:05:53.007Z,4.40
2019-02-02T17:08:23.394Z,4.40
2019-02-02T17:10:53.613Z,4.30
2019-02-02T17:13:23.814Z,4.30
2019-02-02T17:15:54.246Z,4.30
2019-02-02T17:18:24.056Z,4.30
2019-02-02T17:20:53.949Z,4.30
2019-02-02T17:23:24.074Z,4.30
2019-02-02T17:25:54.648Z,4.30
2019-02-02T17:28:25.515Z,4.20
2019-02-02T17:30:56.095Z,4.20
2019-02-02T17:33:28.332Z,4.30
2019-02-02T17:35:58.890Z,4.20
2019-02-02T17:38:28.765Z,4.20
2019-02-02T17:40:59.121Z,4.10
2019-02-02T17:43:28.894Z,4.10
2019-02-02T17:45:58.879Z,4.10
2019-02-02T17:48:29.430Z,4.10
2019-02-02T17:50:59.892Z,4.00
2019-02-02T17:53:29.777Z,4.00
2019-02-02T17:56:00.665Z,4.00
2019-02-02T17:58:39.443Z,3.90
2019-02-02T18:01:03.312Z,3.80
2019-02-02T18:03:33.573Z,3.70
2019-02-02T18:06:06.100Z,3.70
2019-02-02T18:08:36.258Z,3.70
2019-02-02T18:11:06.357Z,3.60
2019-02-02T18:13:38.010Z,3.50
2019-02-02T18:16:09.168Z,3.50
2019-02-02T18:18:39.300Z,3.40
2019-02-02T18:21:09.559Z,3.40
2019-02-02T18:23:39.786Z,3.30
2019-02-02T18:26:09.873Z,3.30
2019-02-02T18:28:39.784Z,3.30
2019-02-02T18:31:10.213Z,3.30
2019-02-02T18:33:40.333Z,3.30
2019-02-02T18:36:10.393Z,3.30
2019-02-02T18:38:40.499Z,3.30
2019-02-02T18:41:10.602Z,3.30
2019-02-02T18:43:40.804Z,3.30
2019-02-02T18:46:11.011Z,3.30
2019-02-02T18:48:41.194Z,3.30
2019-02-02T18:51:11.511Z,3.30
2019-02-02T18:53:42.015Z,3.30
2019-02-02T18:56:16.662Z,3.30
2019-02-02T18:58:47.105Z,3.30
2019-02-02T19:01:17.494Z,3.30
2019-02-02T19:03:47.476Z,3.30
2019-02-02T19:06:17.851Z,3.30
2019-02-02T19:08:47.965Z,3.30
2019-02-02T19:11:18.040Z,3.40
2019-02-02T19:13:47.881Z,3.40
2019-02-02T19:16:21.007Z,3.40
2019-02-02T19:18:51.141Z,3.40
2019-02-02T19:21:21.188Z,3.40
2019-02-02T19:23:51.441Z,3.40
2019-02-02T19:26:22.352Z,3.40
2019-02-02T19:28:52.626Z,3.40
2019-02-02T19:31:23.240Z,3.40
2019-02-02T19:33:55.853Z,3.40
2019-02-02T19:36:26.273Z,3.40
2019-02-02T19:38:56.464Z,3.30
2019-02-02T19:41:26.544Z,3.30
2019-02-02T19:43:56.865Z,3.30
2019-02-02T19:46:27.737Z,3.30
2019-02-02T19:48:58.154Z,3.30
2019-02-02T19:51:28.430Z,3.30
2019-02-02T19:53:58.618Z,3.30
2019-02-02T19:56:28.882Z,3.20
2019-02-02T19:58:58.956Z,3.20
2019-02-02T20:01:29.308Z,3.20
2019-02-02T20:03:59.735Z,3.10
2019-02-02T20:06:30.056Z,3.10
2019-02-02T20:09:00.088Z,3.00
2019-02-02T20:11:30.275Z,3.00
2019-02-02T20:14:00.928Z,3.00
2019-02-02T20:16:31.378Z,2.90
2019-02-02T20:19:03.602Z,2.90
2019-02-02T20:21:33.898Z,2.90
2019-02-02T20:24:04.545Z,2.80
2019-02-02T20:26:35.307Z,2.80
2019-02-02T20:29:05.499Z,2.70
2019-02-02T20:31:36.137Z,2.70
2019-02-02T20:34:06.610Z,2.70
2019-02-02T20:36:37.034Z,2.70
2019-02-02T20:39:09.769Z,2.70
2019-02-02T20:41:40.317Z,2.70
2019-02-02T20:44:12.321Z,2.60
2019-02-02T20:46:42.589Z,2.60
2019-02-02T20:49:14.181Z,2.70
2019-02-02T20:51:44.605Z,2.60
2019-02-02T20:54:15.031Z,2.60
2019-02-02T20:56:46.113Z,2.60
2019-02-02T20:59:16.293Z,2.70
2019-02-02T21:01:47.258Z,2.70
2019-02-02T21:04:17.635Z,2.60
2019-02-02T21:06:47.634Z,2.60
2019-02-02T21:09:17.797Z,2.60
2019-02-02T21:11:56.546Z,2.60
2019-02-02T21:14:19.820Z,2.60
2019-02-02T21:16:49.912Z,2.60
2019-02-02T21:19:20.347Z,2.60
2019-02-02T21:21:50.398Z,2.60
2019-02-02T21:24:22.069Z,2.60
2019-02-02T21:26:52.369Z,2.60
2019-02-02T21:29:22.653Z,2.60
2019-02-02T21:31:52.737Z,2.60
2019-02-02T21:34:22.969Z,2.60
2019-02-02T21:36:52.914Z,2.60
2019-02-02T21:39:23.261Z,2.50
2019-02-02T21:41:53.339Z,2.50
2019-02-02T21:44:27.864Z,2.60
2019-02-02T21:46:58.053Z,2.50
2019-02-02T21:49:28.229Z,2.50
2019-02-02T21:51:58.661Z,2.50
2019-02-02T21:54:28.748Z,2.50
2019-02-02T21:56:59.254Z,2.50
2019-02-02T21:59:29.651Z,2.50
2019-02-02T22:01:59.845Z,2.50
2019-02-02T22:04:30.046Z,2.50
2019-02-02T22:07:00.513Z,2.50
2019-02-02T22:09:31.416Z,2.50
2019-02-02T22:12:01.685Z,2.50
2019-02-02T22:14:32.246Z,2.50
2019-02-02T22:17:02.415Z,2.40
2019-02-02T22:19:32.719Z,2.40
2019-02-02T22:22:03.243Z,2.40
2019-02-02T22:24:33.591Z,2.40
2019-02-02T22:27:04.103Z,2.50
2019-02-02T22:29:34.511Z,2.50
2019-02-02T22:32:05.208Z,2.50
2019-02-02T22:34:38.421Z,2.50
2019-02-02T22:37:08.583Z,2.40
2019-02-02T22:39:38.785Z,2.40
2019-02-02T22:42:08.864Z,2.40
2019-02-02T22:44:39.235Z,2.40
2019-02-02T22:47:14.508Z,2.40
2019-02-02T22:49:44.650Z,2.40
2019-02-02T22:52:15.001Z,2.40
2019-02-02T22:54:44.888Z,2.30
2019-02-02T22:57:14.907Z,2.40
2019-02-02T22:59:47.690Z,2.40
2019-02-02T23:02:19.154Z,2.40
2019-02-02T23:05:53.601Z,2.30
2019-02-02T23:09:16.179Z,2.30
2019-02-02T23:12:12.315Z,2.30
2019-02-02T23:15:40.825Z,2.30
2019-02-02T23:18:10.739Z,2.30
2019-02-02T23:20:40.691Z,2.20
2019-02-02T23:23:10.483Z,2.20
2019-02-02T23:25:40.541Z,2.10
2019-02-02T23:28:10.436Z,2.10
2019-02-02T23:30:40.539Z,2.10
2019-02-02T23:33:10.585Z,2.10
2019-02-02T23:35:40.432Z,2.10
2019-02-02T23:38:12.870Z,2.10
2019-02-02T23:40:43.610Z,2.10
2019-02-02T23:43:15.398Z,2.00
2019-02-02T23:45:44.877Z,2.00
2019-02-02T23:48:14.748Z,2.00
2019-02-02T23:50:46.311Z,2.00
2019-02-02T23:53:16.369Z,1.90
2019-02-02T23:55:46.445Z,2.00
2019-02-02T23:58:16.292Z,2.00
